createdAt,value
2023-05-07T00:00:09.925Z,9.40
2023-05-07T00:02:38.428Z,9.63
2023-05-07T00:05:06.292Z,9.50
2023-05-07T00:07:33.521Z,9.73
2023-05-07T00:10:00.564Z,9.13
2023-05-07T00:12:27.928Z,8.65
2023-05-07T00:14:54.936Z,9.27
2023-05-07T00:17:22.105Z,9.77
2023-05-07T00:19:49.185Z,9.88
2023-05-07T00:22:16.605Z,9.73
2023-05-07T00:24:43.824Z,9.60
2023-05-07T00:27:11.217Z,9.15
2023-05-07T00:29:38.391Z,10.35
2023-05-07T00:32:05.924Z,10.20
2023-05-07T00:34:33.271Z,10.75
2023-05-07T00:37:00.320Z,10.40
2023-05-07T00:39:27.532Z,10.45
2023-05-07T00:41:54.641Z,9.73
2023-05-07T00:44:22.121Z,9.73
2023-05-07T00:46:51.057Z,9.30
2023-05-07T00:49:19.608Z,11.13
2023-05-07T00:51:47.438Z,10.85
2023-05-07T00:54:14.797Z,12.18
2023-05-07T00:56:42.301Z,11.52
2023-05-07T00:59:09.602Z,12.32
2023-05-07T01:01:38.038Z,12.25
2023-05-07T01:04:05.165Z,12.07
2023-05-07T01:06:34.217Z,10.30
2023-05-07T01:09:02.965Z,11.98
2023-05-07T01:11:30.068Z,12.82
2023-05-07T01:13:58.523Z,11.18
2023-05-07T01:16:25.671Z,11.45
2023-05-07T01:18:53.101Z,12.43
2023-05-07T01:21:27.544Z,10.60
2023-05-07T01:23:58.725Z,12.32
2023-05-07T01:26:26.438Z,12.52
2023-05-07T01:28:53.647Z,12.10
2023-05-07T01:31:21.826Z,12.48
2023-05-07T01:33:51.574Z,13.23
2023-05-07T01:36:20.927Z,13.15
2023-05-07T01:38:48.300Z,12.60
2023-05-07T01:41:16.210Z,13.00
2023-05-07T01:43:44.353Z,12.68
2023-05-07T01:46:13.336Z,12.95
2023-05-07T01:48:40.788Z,12.52
2023-05-07T01:51:09.902Z,12.15
2023-05-07T01:53:38.068Z,11.98
2023-05-07T01:56:06.472Z,13.43
2023-05-07T01:58:35.172Z,13.93
2023-05-07T02:01:03.025Z,15.02
2023-05-07T02:03:30.657Z,14.57
2023-05-07T02:06:06.217Z,14.38
2023-05-07T02:08:36.597Z,14.93
2023-05-07T02:11:03.901Z,14.80
2023-05-07T02:13:33.909Z,14.65
2023-05-07T02:16:02.745Z,13.93
2023-05-07T02:18:30.186Z,14.30
2023-05-07T02:20:57.658Z,13.65
2023-05-07T02:23:24.841Z,12.80
2023-05-07T02:25:52.879Z,13.60
2023-05-07T02:28:20.458Z,12.20
2023-05-07T02:30:53.081Z,12.02
2023-05-07T02:33:20.745Z,11.77
2023-05-07T02:35:48.722Z,11.75
2023-05-07T02:38:16.890Z,12.43
2023-05-07T02:40:44.828Z,11.95
2023-05-07T02:43:11.949Z,12.38
2023-05-07T02:45:42.556Z,12.07
2023-05-07T02:48:09.639Z,12.43
2023-05-07T02:50:36.969Z,12.38
2023-05-07T02:53:04.620Z,11.85
2023-05-07T02:55:32.416Z,11.73
2023-05-07T02:57:59.830Z,11.68
2023-05-07T03:00:27.293Z,11.55
2023-05-07T03:03:14.712Z,10.63
2023-05-07T03:05:42.513Z,9.73
2023-05-07T03:08:10.464Z,10.98
2023-05-07T03:10:38.320Z,10.00
2023-05-07T03:13:06.147Z,10.80
2023-05-07T03:15:33.621Z,10.05
2023-05-07T03:18:00.748Z,11.35
2023-05-07T03:20:28.039Z,10.65
2023-05-07T03:22:55.646Z,10.80
2023-05-07T03:25:22.882Z,10.02
2023-05-07T03:27:50.122Z,10.25
2023-05-07T03:30:21.174Z,12.18
2023-05-07T03:32:48.676Z,11.90
2023-05-07T03:35:15.917Z,11.60
2023-05-07T03:37:43.644Z,11.38
2023-05-07T03:40:11.948Z,12.40
2023-05-07T03:42:46.542Z,11.63
2023-05-07T03:45:15.126Z,12.32
2023-05-07T03:47:46.716Z,12.88
2023-05-07T03:50:18.416Z,13.02
2023-05-07T03:52:46.251Z,12.80
2023-05-07T03:55:15.424Z,13.40
2023-05-07T03:57:48.971Z,12.80
2023-05-07T04:00:16.509Z,12.32
2023-05-07T04:05:25.354Z,10.88
2023-05-07T04:07:57.244Z,11.63
2023-05-07T04:10:30.823Z,11.55
2023-05-07T04:12:59.407Z,10.60
2023-05-07T04:15:27.758Z,10.05
2023-05-07T04:17:55.908Z,10.02
2023-05-07T04:20:24.850Z,9.75
2023-05-07T04:22:58.691Z,11.02
2023-05-07T04:25:27.838Z,10.02
2023-05-07T04:28:01.282Z,10.27
2023-05-07T04:30:30.100Z,11.23
2023-05-07T04:32:58.144Z,8.63
2023-05-07T04:35:28.356Z,9.18
2023-05-07T04:37:56.073Z,9.85
2023-05-07T04:40:23.947Z,10.13
2023-05-07T04:42:51.318Z,9.75
2023-05-07T04:45:19.354Z,9.50
2023-05-07T04:47:48.249Z,9.98
2023-05-07T04:50:15.421Z,9.27
2023-05-07T04:52:44.144Z,9.93
2023-05-07T04:55:11.507Z,8.10
2023-05-07T04:57:42.402Z,8.65
2023-05-07T05:00:15.527Z,6.68
2023-05-07T05:02:45.292Z,7.25
2023-05-07T05:05:14.808Z,7.25
2023-05-07T05:07:42.130Z,6.55
2023-05-07T05:10:10.129Z,6.03
2023-05-07T05:12:40.120Z,5.68
2023-05-07T05:15:08.486Z,6.55
2023-05-07T05:17:36.855Z,5.95
2023-05-07T05:20:06.864Z,6.45
2023-05-07T05:22:35.230Z,5.57
2023-05-07T05:25:03.112Z,6.22
2023-05-07T05:27:30.790Z,5.90
2023-05-07T05:29:58.034Z,5.50
2023-05-07T05:32:25.263Z,5.13
2023-05-07T05:34:55.157Z,5.47
2023-05-07T05:37:22.331Z,5.75
2023-05-07T05:39:51.069Z,5.45
2023-05-07T05:42:19.089Z,5.05
2023-05-07T05:44:46.149Z,5.40
2023-05-07T05:47:13.371Z,5.38
2023-05-07T05:49:40.460Z,5.47
2023-05-07T05:52:11.355Z,5.75
2023-05-07T05:54:38.620Z,5.63
2023-05-07T05:57:06.085Z,5.60
2023-05-07T05:59:33.991Z,5.70
2023-05-07T06:02:01.216Z,5.20
2023-05-07T06:04:28.894Z,5.15
2023-05-07T06:06:57.941Z,5.43
2023-05-07T06:09:26.781Z,5.00
2023-05-07T06:11:54.055Z,5.60
2023-05-07T06:14:21.263Z,5.18
2023-05-07T06:16:48.474Z,5.25
2023-05-07T06:19:16.038Z,5.32
2023-05-07T06:21:43.487Z,5.13
2023-05-07T06:24:11.148Z,5.78
2023-05-07T06:26:39.972Z,5.05
2023-05-07T06:29:07.839Z,5.50
2023-05-07T06:31:35.654Z,5.18
2023-05-07T06:34:06.211Z,4.80
2023-05-07T06:36:37.314Z,4.75
2023-05-07T06:39:15.237Z,5.07
2023-05-07T06:41:42.358Z,5.13
2023-05-07T06:44:18.008Z,5.65
2023-05-07T06:46:49.187Z,5.05
2023-05-07T06:49:17.247Z,5.15
2023-05-07T06:51:45.520Z,4.57
2023-05-07T06:54:12.727Z,4.50
2023-05-07T06:56:40.938Z,4.68
2023-05-07T06:59:08.792Z,4.75
2023-05-07T07:01:39.938Z,4.43
2023-05-07T07:04:08.382Z,3.90
2023-05-07T07:06:36.838Z,3.65
2023-05-07T07:09:08.469Z,3.42
2023-05-07T07:11:36.397Z,3.63
2023-05-07T07:14:03.987Z,3.30
2023-05-07T07:16:33.995Z,3.65
2023-05-07T07:19:01.377Z,3.38
2023-05-07T07:21:29.097Z,3.70
2023-05-07T07:23:56.451Z,4.15
2023-05-07T07:26:23.789Z,3.42
2023-05-07T07:28:51.003Z,3.55
2023-05-07T07:31:22.008Z,3.72
2023-05-07T07:33:53.262Z,3.92
2023-05-07T07:36:23.397Z,4.00
2023-05-07T07:38:51.213Z,4.07
2023-05-07T07:41:18.792Z,3.40
2023-05-07T07:43:49.671Z,3.17
2023-05-07T07:46:18.307Z,2.58
2023-05-07T07:48:45.804Z,3.75
2023-05-07T07:51:13.283Z,3.60
2023-05-07T07:53:41.202Z,3.03
2023-05-07T07:56:08.534Z,3.30
2023-05-07T07:58:36.814Z,4.15
2023-05-07T08:01:04.659Z,3.75
2023-05-07T08:03:33.711Z,3.80
2023-05-07T08:06:02.498Z,3.53
2023-05-07T08:08:31.295Z,3.78
2023-05-07T08:10:58.697Z,3.85
2023-05-07T08:13:31.408Z,3.70
2023-05-07T08:15:59.602Z,3.50
2023-05-07T08:18:29.506Z,4.07
2023-05-07T08:20:58.109Z,3.80
2023-05-07T08:23:27.270Z,4.07
2023-05-07T08:25:54.874Z,3.30
2023-05-07T08:28:22.549Z,3.80
2023-05-07T08:30:49.889Z,3.47
2023-05-07T08:33:17.107Z,3.80
2023-05-07T08:35:44.301Z,3.47
2023-05-07T08:38:13.716Z,4.10
2023-05-07T08:40:42.582Z,3.38
2023-05-07T08:43:16.164Z,3.92
2023-05-07T08:45:46.960Z,3.95
2023-05-07T08:48:18.348Z,4.28
2023-05-07T08:50:52.905Z,4.05
2023-05-07T08:53:21.992Z,5.18
2023-05-07T08:55:50.467Z,5.20
2023-05-07T08:58:18.194Z,4.30
2023-05-07T09:00:45.526Z,5.07
2023-05-07T09:03:13.807Z,5.03
2023-05-07T09:05:45.022Z,4.40
2023-05-07T09:08:17.360Z,5.25
2023-05-07T09:10:46.442Z,4.45
2023-05-07T09:13:15.749Z,4.78
2023-05-07T09:15:43.787Z,4.20
2023-05-07T09:18:11.738Z,4.07
2023-05-07T09:20:41.045Z,4.40
2023-05-07T09:23:09.921Z,4.13
2023-05-07T09:25:38.789Z,4.20
2023-05-07T09:28:13.727Z,4.35
2023-05-07T09:30:41.623Z,4.20
2023-05-07T09:33:11.540Z,4.20
2023-05-07T09:35:41.975Z,4.10
2023-05-07T09:38:15.160Z,4.15
2023-05-07T09:40:42.856Z,4.57
2023-05-07T09:43:15.211Z,4.65
2023-05-07T09:45:52.531Z,4.43
2023-05-07T09:48:23.231Z,4.80
2023-05-07T09:50:59.663Z,4.50
2023-05-07T09:53:32.095Z,4.13
2023-05-07T09:56:05.131Z,4.70
2023-05-07T09:58:34.569Z,4.80
2023-05-07T10:01:03.762Z,4.45
2023-05-07T10:03:33.616Z,3.75
2023-05-07T10:06:06.310Z,3.60
2023-05-07T10:08:34.526Z,4.43
2023-05-07T10:11:04.573Z,4.28
2023-05-07T10:13:36.843Z,4.07
2023-05-07T10:16:05.525Z,4.45
2023-05-07T10:18:41.384Z,4.95
2023-05-07T10:21:23.905Z,3.90
2023-05-07T10:24:01.279Z,5.28
2023-05-07T10:26:32.276Z,4.80
2023-05-07T10:29:08.665Z,4.43
2023-05-07T10:31:38.120Z,5.82
2023-05-07T10:34:15.197Z,4.45
2023-05-07T10:36:43.440Z,4.80
2023-05-07T10:39:11.216Z,4.68
2023-05-07T10:41:39.962Z,5.13
2023-05-07T10:44:08.089Z,5.35
2023-05-07T10:46:37.153Z,5.28
2023-05-07T10:49:12.605Z,5.05
2023-05-07T10:51:48.301Z,5.28
2023-05-07T10:54:27.937Z,5.22
2023-05-07T10:57:33.721Z,4.45
2023-05-07T11:00:39.028Z,5.10
2023-05-07T11:03:10.522Z,4.82
2023-05-07T11:05:43.870Z,4.70
2023-05-07T11:08:19.087Z,4.00
2023-05-07T11:10:57.600Z,5.43
2023-05-07T11:13:45.902Z,4.60
2023-05-07T11:16:24.271Z,4.95
2023-05-07T11:18:58.570Z,4.50
2023-05-07T11:21:34.862Z,4.95
2023-05-07T11:24:23.173Z,4.70
2023-05-07T11:26:56.147Z,5.05
2023-05-07T11:29:25.088Z,5.38
2023-05-07T11:31:58.979Z,5.28
2023-05-07T11:34:31.278Z,5.32
2023-05-07T11:37:00.909Z,5.10
2023-05-07T11:39:40.508Z,4.80
2023-05-07T11:42:09.151Z,4.88
2023-05-07T11:44:45.332Z,5.00
2023-05-07T11:47:12.784Z,4.13
2023-05-07T11:49:39.853Z,4.93
2023-05-07T11:52:07.038Z,4.07
2023-05-07T11:54:38.516Z,5.20
2023-05-07T11:57:06.730Z,5.18
2023-05-07T11:59:41.358Z,5.25
2023-05-07T12:02:09.323Z,5.10
2023-05-07T12:04:36.533Z,4.75
2023-05-07T12:07:03.683Z,5.22
2023-05-07T12:09:30.941Z,4.88
2023-05-07T12:11:58.033Z,4.78
2023-05-07T12:14:30.059Z,5.25
2023-05-07T12:16:57.705Z,5.03
2023-05-07T12:19:24.927Z,5.47
2023-05-07T12:21:52.048Z,5.22
2023-05-07T12:24:21.831Z,4.55
2023-05-07T12:26:49.878Z,5.35
2023-05-07T12:29:16.894Z,4.43
2023-05-07T12:31:44.538Z,4.97
2023-05-07T12:34:13.135Z,5.10
2023-05-07T12:36:41.417Z,4.60
2023-05-07T12:39:09.839Z,4.95
2023-05-07T12:41:55.606Z,4.95
2023-05-07T12:44:25.143Z,4.75
2023-05-07T12:46:53.017Z,5.03
2023-05-07T12:49:20.834Z,4.60
2023-05-07T12:51:49.602Z,5.25
2023-05-07T12:54:33.546Z,4.60
2023-05-07T12:57:03.821Z,5.07
2023-05-07T12:59:33.778Z,5.10
2023-05-07T13:02:01.065Z,4.75
2023-05-07T13:04:28.209Z,5.05
2023-05-07T13:06:55.541Z,5.30
2023-05-07T13:09:22.646Z,4.70
2023-05-07T13:11:49.706Z,5.13
2023-05-07T13:14:17.096Z,4.88
2023-05-07T13:16:44.251Z,4.68
2023-05-07T13:19:12.081Z,4.50
2023-05-07T13:21:39.205Z,4.30
2023-05-07T13:24:06.716Z,4.50
2023-05-07T13:26:33.806Z,3.70
2023-05-07T13:29:00.952Z,4.68
2023-05-07T13:31:28.035Z,4.57
2023-05-07T13:33:57.351Z,4.80
2023-05-07T13:36:24.580Z,4.13
2023-05-07T13:38:52.896Z,4.68
2023-05-07T13:41:20.120Z,4.47
2023-05-07T13:43:47.170Z,4.50
2023-05-07T13:46:14.479Z,4.75
2023-05-07T13:48:41.585Z,4.72
2023-05-07T13:51:08.621Z,4.30
2023-05-07T13:53:36.549Z,4.18
2023-05-07T13:56:05.676Z,4.00
2023-05-07T13:58:32.799Z,4.43
2023-05-07T14:00:59.927Z,4.55
2023-05-07T14:03:27.154Z,4.63
2023-05-07T14:05:54.349Z,5.00
2023-05-07T14:08:21.831Z,4.10
2023-05-07T14:10:48.840Z,4.32
2023-05-07T14:13:15.974Z,3.97
2023-05-07T14:15:47.300Z,3.80
2023-05-07T14:18:14.450Z,3.72
2023-05-07T14:20:41.570Z,4.15
2023-05-07T14:23:08.597Z,3.92
2023-05-07T14:25:35.747Z,3.70
2023-05-07T14:28:03.040Z,4.25
2023-05-07T14:30:30.089Z,3.38
2023-05-07T14:32:57.299Z,3.70
2023-05-07T14:35:24.720Z,3.60
2023-05-07T14:37:51.777Z,3.58
2023-05-07T14:40:18.922Z,3.80
2023-05-07T14:42:46.023Z,4.10
2023-05-07T14:45:13.982Z,3.72
2023-05-07T14:47:41.173Z,3.95
2023-05-07T14:50:08.439Z,4.50
2023-05-07T14:52:35.561Z,4.00
2023-05-07T14:55:02.703Z,4.22
2023-05-07T14:57:32.957Z,4.65
2023-05-07T15:00:00.200Z,4.97
2023-05-07T15:02:27.356Z,4.55
2023-05-07T15:04:54.469Z,4.50
2023-05-07T15:07:21.506Z,5.13
2023-05-07T15:09:48.581Z,5.60
2023-05-07T15:12:15.764Z,6.18
2023-05-07T15:14:42.869Z,6.40
2023-05-07T15:17:09.904Z,6.55
2023-05-07T15:19:37.811Z,5.82
2023-05-07T15:22:04.919Z,5.60
2023-05-07T15:24:32.310Z,6.65
2023-05-07T15:26:59.555Z,7.70
2023-05-07T15:29:26.608Z,9.55
2023-05-07T15:31:53.718Z,11.38
2023-05-07T15:34:21.952Z,13.95
2023-05-07T15:36:49.072Z,15.30
2023-05-07T15:39:17.103Z,15.30
2023-05-07T15:41:44.186Z,16.02
2023-05-07T15:44:11.350Z,16.77
2023-05-07T15:46:38.411Z,16.63
2023-05-07T15:49:05.692Z,20.35
2023-05-07T15:51:35.975Z,28.88
2023-05-07T15:54:03.114Z,26.25
2023-05-07T15:56:33.743Z,23.00
2023-05-07T15:59:01.211Z,20.17
2023-05-07T16:01:28.853Z,21.63
2023-05-07T16:03:56.174Z,21.27
2023-05-07T16:06:23.345Z,21.17
2023-05-07T16:08:50.452Z,19.08
2023-05-07T16:11:17.507Z,18.90
2023-05-07T16:13:44.624Z,20.17
2023-05-07T16:16:11.907Z,19.02
2023-05-07T16:18:38.962Z,19.33
2023-05-07T16:21:07.073Z,20.20
2023-05-07T16:23:34.071Z,19.20
2023-05-07T16:26:01.161Z,19.65
2023-05-07T16:28:28.164Z,20.05
2023-05-07T16:30:55.198Z,21.70
2023-05-07T16:33:22.279Z,21.40
2023-05-07T16:35:53.301Z,21.95
2023-05-07T16:38:20.617Z,20.98
2023-05-07T16:40:47.689Z,22.98
2023-05-07T16:43:14.839Z,23.13
2023-05-07T16:45:41.992Z,21.52
2023-05-07T16:48:09.334Z,21.63
2023-05-07T16:50:36.954Z,19.45
2023-05-07T16:53:07.190Z,20.77
2023-05-07T16:55:38.947Z,20.23
2023-05-07T16:58:09.101Z,19.77
2023-05-07T17:00:49.160Z,19.67
2023-05-07T17:03:18.635Z,20.20
2023-05-07T17:05:46.068Z,18.05
2023-05-07T17:08:14.148Z,17.65
2023-05-07T17:10:41.952Z,17.58
2023-05-07T17:13:09.142Z,16.42
2023-05-07T17:15:36.280Z,16.00
2023-05-07T17:18:03.641Z,15.27
2023-05-07T17:20:31.075Z,16.10
2023-05-07T17:22:58.151Z,13.55
2023-05-07T17:25:25.297Z,11.02
2023-05-07T17:27:52.367Z,11.82
2023-05-07T17:30:19.799Z,11.52
2023-05-07T17:32:47.047Z,11.00
2023-05-07T17:35:14.415Z,11.32
2023-05-07T17:37:41.907Z,11.40
2023-05-07T17:40:09.587Z,10.88
2023-05-07T17:42:37.162Z,10.85
2023-05-07T17:45:04.780Z,10.70
2023-05-07T17:47:32.824Z,10.73
2023-05-07T17:50:01.890Z,10.52
2023-05-07T17:52:29.447Z,10.57
2023-05-07T17:54:56.790Z,10.30
2023-05-07T17:57:24.128Z,10.38
2023-05-07T17:59:51.569Z,10.60
2023-05-07T18:02:19.166Z,10.63
2023-05-07T18:04:46.706Z,10.95
2023-05-07T18:07:14.025Z,11.77
2023-05-07T18:09:41.625Z,11.65
2023-05-07T18:12:09.187Z,11.32
2023-05-07T18:14:37.185Z,10.57
2023-05-07T18:17:04.661Z,10.93
2023-05-07T18:19:32.377Z,10.88
2023-05-07T18:21:59.950Z,12.30
2023-05-07T18:24:28.148Z,11.63
2023-05-07T18:26:55.753Z,11.05
2023-05-07T18:29:23.863Z,10.70
2023-05-07T18:31:51.425Z,10.77
2023-05-07T18:34:18.999Z,11.30
2023-05-07T18:36:46.562Z,11.30
2023-05-07T18:39:13.729Z,10.95
2023-05-07T18:41:40.971Z,11.25
2023-05-07T18:44:08.313Z,13.32
2023-05-07T18:46:35.680Z,11.82
2023-05-07T18:49:02.797Z,12.13
2023-05-07T18:51:29.970Z,12.82
2023-05-07T18:53:57.509Z,12.43
2023-05-07T18:56:24.828Z,12.50
2023-05-07T18:58:52.644Z,12.40
2023-05-07T19:01:20.237Z,13.25
2023-05-07T19:03:47.631Z,12.82
2023-05-07T19:06:15.175Z,12.52
2023-05-07T19:08:43.273Z,12.55
2023-05-07T19:11:11.116Z,12.93
2023-05-07T19:13:38.522Z,12.85
2023-05-07T19:16:05.996Z,11.98
2023-05-07T19:18:33.453Z,12.07
2023-05-07T19:21:01.319Z,11.82
2023-05-07T19:23:29.020Z,11.98
2023-05-07T19:25:56.250Z,13.15
2023-05-07T19:28:23.677Z,12.20
2023-05-07T19:30:52.408Z,13.00
2023-05-07T19:33:19.476Z,12.50
2023-05-07T19:35:46.617Z,12.35
2023-05-07T19:38:13.794Z,12.85
2023-05-07T19:40:41.213Z,13.18
2023-05-07T19:43:08.367Z,12.43
2023-05-07T19:45:35.774Z,12.40
2023-05-07T19:48:03.016Z,12.35
2023-05-07T19:50:30.339Z,12.10
2023-05-07T19:52:57.624Z,13.27
2023-05-07T19:55:24.938Z,11.45
2023-05-07T19:57:52.130Z,12.52
2023-05-07T20:00:21.296Z,11.27
2023-05-07T20:02:51.114Z,12.45
2023-05-07T20:05:18.467Z,13.52
2023-05-07T20:07:46.407Z,12.70
2023-05-07T20:10:13.752Z,12.85
2023-05-07T20:12:41.139Z,13.80
2023-05-07T20:15:09.116Z,14.13
2023-05-07T20:17:36.135Z,14.15
2023-05-07T20:20:04.027Z,13.68
2023-05-07T20:22:31.969Z,13.52
2023-05-07T20:24:59.518Z,12.65
2023-05-07T20:27:26.797Z,14.45
2023-05-07T20:29:53.997Z,13.70
2023-05-07T20:32:21.117Z,15.35
2023-05-07T20:34:48.193Z,15.00
2023-05-07T20:37:16.357Z,13.32
2023-05-07T20:39:44.423Z,12.80
2023-05-07T20:42:11.668Z,14.40
2023-05-07T20:44:39.493Z,16.50
2023-05-07T20:47:07.232Z,17.10
2023-05-07T20:49:34.947Z,17.65
2023-05-07T20:52:02.485Z,18.02
2023-05-07T20:54:30.438Z,17.48
2023-05-07T20:56:58.192Z,17.60
2023-05-07T20:59:26.162Z,18.05
2023-05-07T21:01:53.544Z,19.63
2023-05-07T21:04:20.671Z,20.98
2023-05-07T21:06:48.213Z,19.75
2023-05-07T21:09:15.542Z,20.17
2023-05-07T21:11:42.575Z,22.40
2023-05-07T21:14:09.866Z,20.48
2023-05-07T21:16:37.014Z,20.88
2023-05-07T21:19:04.818Z,20.60
2023-05-07T21:21:31.921Z,21.88
2023-05-07T21:23:59.109Z,21.00
2023-05-07T21:26:26.369Z,21.88
2023-05-07T21:28:53.612Z,21.15
2023-05-07T21:31:20.841Z,21.55
2023-05-07T21:33:48.030Z,22.05
2023-05-07T21:36:15.116Z,21.90
2023-05-07T21:38:42.267Z,21.60
2023-05-07T21:41:09.652Z,22.75
2023-05-07T21:43:36.828Z,21.02
2023-05-07T21:46:08.386Z,21.27
2023-05-07T21:48:35.750Z,21.13
2023-05-07T21:51:04.490Z,22.58
2023-05-07T21:53:31.963Z,20.42
2023-05-07T21:56:00.532Z,16.05
2023-05-07T21:58:27.760Z,13.57
2023-05-07T22:00:55.136Z,13.05
2023-05-07T22:03:22.373Z,11.90
2023-05-07T22:05:49.908Z,11.23
2023-05-07T22:08:17.160Z,10.63
2023-05-07T22:10:44.801Z,10.23
2023-05-07T22:13:12.242Z,10.32
2023-05-07T22:15:49.535Z,9.95
2023-05-07T22:18:24.047Z,9.88
2023-05-07T22:20:52.253Z,9.95
2023-05-07T22:23:19.406Z,9.35
2023-05-07T22:25:46.740Z,10.50
2023-05-07T22:28:13.922Z,9.45
2023-05-07T22:30:41.320Z,10.07
2023-05-07T22:33:08.593Z,10.35
2023-05-07T22:35:35.778Z,10.50
2023-05-07T22:38:02.847Z,10.43
2023-05-07T22:40:29.891Z,9.15
2023-05-07T22:42:57.075Z,10.48
2023-05-07T22:45:24.235Z,10.43
2023-05-07T22:47:51.373Z,9.82
2023-05-07T22:50:21.183Z,10.77
2023-05-07T22:52:49.310Z,10.00
2023-05-07T22:55:16.470Z,11.23
2023-05-07T22:57:43.586Z,10.50
2023-05-07T23:00:12.124Z,10.73
2023-05-07T23:02:39.541Z,10.80
2023-05-07T23:05:07.229Z,11.48
2023-05-07T23:07:34.430Z,12.05
2023-05-07T23:10:01.605Z,12.25
2023-05-07T23:12:28.914Z,11.95
2023-05-07T23:14:55.948Z,12.20
2023-05-07T23:17:23.094Z,11.82
2023-05-07T23:19:50.290Z,11.20
2023-05-07T23:22:17.456Z,11.35
2023-05-07T23:24:44.666Z,11.30
2023-05-07T23:27:11.747Z,11.75
2023-05-07T23:29:38.826Z,12.85
2023-05-07T23:32:06.167Z,10.45
2023-05-07T23:34:33.219Z,10.55
2023-05-07T23:37:00.338Z,10.80
2023-05-07T23:39:27.523Z,10.07
2023-05-07T23:41:54.633Z,11.10
2023-05-07T23:44:21.695Z,10.30
2023-05-07T23:46:49.263Z,10.40
2023-05-07T23:49:16.424Z,11.00
2023-05-07T23:51:43.516Z,11.38
2023-05-07T23:54:10.723Z,10.23
2023-05-07T23:56:37.830Z,10.35
2023-05-07T23:59:04.809Z,9.82
